Terminal Aerodrome Forecast
Issued by NWS

Home | Current Version | Previous Version | Text Only | Print | Product List | Glossary On
Versions: 1 2 3 4 5 6 7 8 9 10 11 12 13 14
000
FTUS44 KOUN 031725
TAFLAW
TAF
KLAW 031725Z 0318/0418 20007KT P6SM BKN100 BKN250
     FM040100 VRB03KT P6SM SCT250
     FM041500 33010G16KT P6SM SKC=

USA.gov is the U.S. government's official web portal to all federal, state and local government web resources and services.